Tiempo atmosférico en la estación meteorológica de Irurtzun, Navarra (455 m.)



Fecha
DESCASC
Temp. máxima en grados centígrados (hora)
DESCASC
Temp. mínima en grados centígrados (hora)
DESCASC
Temp. media en grados centígrados
DESCASC
Racha de viento máxima en m/sg (hora)
DESCASC
Velocidad máxima media en intervalos de 10 minutos(hora)
DESCASC
Precipitaciones diarias en mm
DESCASC
Precipitaciones de 00:00 a 06:00 en mm
DESCASC
Precipitaciones de 06:00 a 12:00 en mm
DESCASC
Precipitaciones de 12:00 a 18:00 en mm
DESCASC
Precipitaciones de 18:00 a 24:00 en mm
DESCASC
23-06-2019 34.2 (18:20) 14.6 (04:30) 24.4 10.28 (19:00) 5.83 (18:50) 0 0 0 0 0
22-06-2019 29.9 (18:10) 7.3 (06:40) 18.6 5.83 (13:50) 2.5 (15:00) 0 0 0 0 0
21-06-2019 19 (17:40) 13.1 (07:20) 16.1 8.33 (22:10) 3.89 (22:10) 5.8 5.4 0.4 0 0
20-06-2019 18.3 (14:30) 14.2 (00:00) 16.2 10.28 (18:20) 4.44 (17:20) 2.8 0 0 0 2.8
19-06-2019 -- (--) -- (--) -- -- (--) -- (--) -- -- -- -- 0
18-06-2019 -- (--) -- (--) -- -- (--) -- (--) -- 0 0 0 --
17-06-2019 32.6 (18:00) 10.6 (00:00) 21.6 6.94 (15:20) 3.33 (12:20) 0 0 0 0 0
16-06-2019 29.1 (18:00) 6.6 (00:00) 17.9 8.33 (19:50) 4.17 (20:40) 0 0 0 0 0
15-06-2019 20.1 (16:00) 10.8 (00:00) 15.5 8.89 (19:40) 3.61 (20:00) 0.8 0.6 0.2 0 0
14-06-2019 20.9 (14:10) 11.3 (00:00) 16.1 8.61 (23:30) 5 (21:40) 1.4 0 0 0 1.4
13-06-2019 25.5 (16:00) 4.6 (00:00) 15 11.39 (11:20) 6.39 (11:20) 0 0 0 0 0
12-06-2019 19.4 (16:00) 3.9 (00:00) 11.6 7.78 (19:40) 3.89 (18:30) 0 0 0 0 0
11-06-2019 13.2 (15:10) 8.7 (00:00) 10.9 10.83 (15:20) 5 (17:00) 3.2 0.2 0.8 2 0.2
10-06-2019 15.9 (16:10) 10.2 (00:00) 13 8.33 (09:10) 4.17 (12:50) 0.2 0 0.2 0 0
09-06-2019 22.3 (14:10) 12.1 (00:00) 17.2 13.33 (16:40) 6.94 (16:30) 1.8 1.8 0 0 0
08-06-2019 24.6 (16:30) 4.7 (00:00) 14.7 9.72 (18:50) 5.56 (17:30) 0 0 0 0 0
07-06-2019 19.6 (00:50) 10.3 (00:00) 15 13.61 (01:10) 4.72 (18:00) 3.2 3.2 0 0 0
06-06-2019 24.9 (18:40) 8.1 (00:00) 16.5 16.11 (17:10) 7.22 (16:50) 0 0 0 0 0
05-06-2019 14.2 (18:20) 9.8 (00:00) 12 9.17 (17:40) 5 (17:30) 27.2 10.8 16 0.4 0
04-06-2019 29.8 (15:00) 12.6 (00:00) 21.2 13.89 (17:10) 6.94 (17:40) 1.6 0 0 0 1.6
03-06-2019 30.7 (18:10) 12.2 (00:00) 21.5 6.94 (20:00) 3.89 (20:00) 0 0 0 0 0
02-06-2019 31.9 (17:10) 12.4 (00:00) 22.1 7.78 (13:10) 3.33 (19:40) 0 0 0 0 0
01-06-2019 31.4 (18:30) 10.8 (00:00) 21.1 6.67 (15:00) 3.33 (10:00) 0 0 0 0 0
31-05-2019 29.7 (17:10) 8.8 (00:00) 19.3 7.5 (14:50) 3.33 (20:50) 0 0 0 0 0
30-05-2019 25.4 (16:20) 5.3 (00:00) 15.3 7.78 (20:40) 3.33 (15:10) 0 0 0 0 0
29-05-2019 17 (14:50) 9.7 (00:00) 13.3 10.83 (18:10) 4.44 (18:10) 1.4 0.4 1 0 0
28-05-2019 14.8 (13:40) 10.1 (00:00) 12.5 9.72 (18:20) 4.72 (14:20) 0.8 0 0 0.2 0.6

Gráficas

Temp. máximas Temp. mínimas Temp. medias Precipitaciones Rachas de viento máximas Velocidades máximas media en intervalos de 10 minutos

Datos horarios

Fecha y hora oficial Temperatura (ºC) Velocidad del viento (km/h) Dirección del viento Racha (km/h) Dirección de racha Precipitación (mm) Presión (hPa) Tendencia (hPa) Humedad (%)
2019-06-26 23:00:00 23 0 Calma 7 Norte 0 -- -- 64
2019-06-26 22:00:00 26.2 4 Noroeste 12 Noroeste 0 -- -- 50
2019-06-26 21:00:00 31.5 4 Norte 19 Sudeste 0 -- -- 43
2019-06-26 20:00:00 36.8 10 Sudeste 24 Sudeste 0 -- -- 27
2019-06-26 19:00:00 37.5 6 Este 21 Sur 0 -- -- 27
2019-06-26 18:00:00 37 11 Sudeste 42 Sudeste 0 -- -- 26
2019-06-26 17:00:00 36.8 12 Sur 34 Sur 0 -- -- 28
2019-06-26 16:00:00 36.6 13 Sudeste 36 Sur 0 -- -- 26
2019-06-26 15:00:00 36 14 Sur 37 Este 0 -- -- 29
2019-06-26 14:00:00 34.2 7 Sudeste 32 Sur 0 -- -- 30
2019-06-26 13:00:00 31.9 15 Sudeste 35 Sudoeste 0 -- -- 36
2019-06-26 12:00:00 30 14 Sur 33 Sudeste 0 -- -- 43
2019-06-26 11:00:00 28.8 15 Sudeste 30 Sudeste 0 -- -- 44
2019-06-26 10:00:00 26.8 14 Sudeste 22 Sudeste 0 -- -- 48
2019-06-26 09:00:00 22.9 4 Este 12 Este 0 -- -- 70
2019-06-26 08:00:00 18 2 Norte 8 Norte 0 -- -- 92
2019-06-26 07:00:00 17.4 2 Norte 9 Norte 0 -- -- 92
2019-06-26 06:00:00 17.8 3 Norte 8 Este 0 -- -- 92
2019-06-26 05:00:00 20.4 5 Este 21 Este 0 -- -- 81
2019-06-26 04:00:00 20.1 9 Este 22 Nordeste 0 -- -- 88
2019-06-26 03:00:00 19.1 13 Nordeste 22 Este 0 -- -- 91
2019-06-26 02:00:00 18.8 0 Calma 15 Norte 0 -- -- 93
2019-06-26 01:00:00 18.8 4 Noroeste 8 Noroeste 0 -- -- 93
2019-06-26 00:00:00 19.6 2 Norte 7 Nordeste 0 -- -- 89
2019-06-25 23:00:00 20.9 4 Noroeste 13 Noroeste 0 -- -- 85
2019-06-25 22:00:00 22.5 8 Norte 17 Nordeste 0 -- -- 80
2019-06-25 21:00:00 25.5 12 Norte 23 Noroeste 0 -- -- 72
2019-06-25 20:00:00 26.9 12 Norte 37 Norte 0 -- -- 68
2019-06-25 19:00:00 28 16 Norte 35 Norte 0 -- -- 65
2019-06-25 18:00:00 29.2 18 Norte 36 Norte 0 -- -- 61
2019-06-25 17:00:00 33.7 9 Nordeste 18 Nordeste 0 -- -- 43
2019-06-25 16:00:00 32.2 5 Noroeste 18 Este 0 -- -- 43
2019-06-25 15:00:00 31.2 8 Nordeste 23 Este 0 -- -- 42
2019-06-25 14:00:00 29.2 9 Este 22 Este 0 -- -- 45
2019-06-25 13:00:00 27.9 8 Este 17 Este 0 -- -- 47
2019-06-25 12:00:00 24.2 3 Norte 7 Norte 0 -- -- 62
2019-06-25 11:00:00 21.9 2 Oeste 5 Oeste 0 -- -- 73
2019-06-25 10:00:00 19.6 3 Oeste 6 Noroeste 0 -- -- 79
2019-06-25 09:00:00 17.5 2 Oeste 4 Sudoeste 0 -- -- 86
2019-06-25 08:00:00 15.5 2 Oeste 6 Sudoeste 0 -- -- 91
2019-06-25 07:00:00 15.4 2 Sudoeste 5 Sudoeste 0 -- -- 92
2019-06-25 06:00:00 15.6 0 Calma 3 Oeste 0 -- -- 91
2019-06-25 05:00:00 16.2 0 Calma 4 Norte 0 -- -- 89
2019-06-25 04:00:00 16.8 3 Noroeste 12 Norte 0 -- -- 88
2019-06-25 03:00:00 17 2 Noroeste 8 Noroeste 0 -- -- 87
2019-06-25 02:00:00 17 2 Oeste 5 Noroeste 0 -- -- 88
2019-06-25 01:00:00 17.8 3 Oeste 13 Noroeste 0 -- -- 86
2019-06-25 00:00:00 18.6 7 Noroeste 19 Noroeste 0 -- -- 84
2019-06-24 23:00:00 19.3 4 Oeste 9 Norte 0 -- -- 83
2019-06-24 22:00:00 20.8 5 Noroeste 18 Norte 0 -- -- 76
2019-06-24 21:00:00 23.7 13 Norte 31 Norte 0 -- -- 66
2019-06-24 20:00:00 32 8 Este 20 Este 0 -- -- 31
2019-06-24 19:00:00 31.8 14 Sudeste 29 Este 0 -- -- 28
2019-06-24 18:00:00 31.7 12 Sudeste 27 Sudeste 0 -- -- 28
2019-06-24 17:00:00 30.5 9 Sudeste 26 Este 0 -- -- 35
2019-06-24 16:00:00 30 5 Sur 29 Este 0 -- -- 39
2019-06-24 15:00:00 28.8 18 Sudeste 42 Este 0 -- -- 30
2019-06-24 14:00:00 28.9 13 Sudeste 44 Este 0 -- -- 33
2019-06-24 13:00:00 28.1 19 Sudeste 39 Sudeste 0 -- -- 33
2019-06-24 12:00:00 27 12 Sur 26 Sudeste 0 -- -- 38
2019-06-24 11:00:00 27 14 Sudeste 30 Sudeste 0 -- -- 37
2019-06-24 10:00:00 24.2 7 Sudeste 19 Sur 0 -- -- 44
2019-06-24 09:00:00 19.1 5 Noroeste 12 Nordeste 0 -- -- 73
2019-06-24 08:00:00 17 8 Norte 15 Norte 0 -- -- 80
2019-06-24 07:00:00 16.9 6 Norte 16 Norte 0 -- -- 82
2019-06-24 06:00:00 16.8 6 Noroeste 13 Norte 0 -- -- 83
2019-06-24 05:00:00 16.7 6 Norte 12 Norte 0 -- -- 88
2019-06-24 04:00:00 16.9 4 Nordeste 10 Nordeste 0 -- -- 89
2019-06-24 03:00:00 16 0 Calma 2 Sur 0 -- -- 91
2019-06-24 02:00:00 16.9 0 Calma 5 Nordeste 0 -- -- 87
2019-06-24 01:00:00 17.8 0 Calma 4 Oeste 0 -- -- 84
2019-06-24 00:00:00 19.1 0 Calma 10 Noroeste 0 -- -- 79
2019-06-23 23:00:00 20.6 5 Oeste 11 Oeste 0 -- -- 75
2019-06-23 22:00:00 21.8 3 Sudoeste 11 Noroeste 0 -- -- 72
2019-06-23 21:00:00 23.1 6 Noroeste 12 Oeste 0 -- -- 69
2019-06-23 20:00:00 25.3 5 Oeste 30 Norte 0 -- -- 65
2019-06-23 19:00:00 27.2 19 Norte 37 Nordeste 0 -- -- 59
2019-06-23 18:00:00 33.7 6 Sur 18 Sur 0 -- -- 34
2019-06-23 17:00:00 33.1 9 Sur 18 Sur 0 -- -- 34
2019-06-23 16:00:00 32 6 Sur 19 Sudeste 0 -- -- 37
2019-06-23 15:00:00 32 5 Sur 22 Sudeste 0 -- -- 40
2019-06-23 14:00:00 30.1 10 Sur 27 Sudeste 0 -- -- 45
2019-06-23 13:00:00 29.5 13 Sur 24 Sur 0 -- -- 44
2019-06-23 12:00:00 27.8 10 Sudeste 28 Este 0 -- -- 50
2019-06-23 11:00:00 25.8 15 Sudeste 28 Sudeste 0 -- -- 53
2019-06-23 10:00:00 23.5 6 Este 15 Este 0 -- -- 60
2019-06-23 09:00:00 19.9 3 Norte 6 Norte 0 -- -- 79
2019-06-23 08:00:00 19.4 2 Nordeste 7 Este 0 -- -- 74
2019-06-23 07:00:00 18.7 4 Este 15 Este 0 -- -- 71
2019-06-23 06:00:00 15.8 2 Noroeste 5 Noroeste 0 -- -- 86
2019-06-23 05:00:00 14.9 2 Noroeste 6 Norte 0 -- -- 91
2019-06-23 04:00:00 14.9 0 Calma 4 Noroeste 0 -- -- 88
2019-06-23 03:00:00 15.6 2 Norte 7 Norte 0 -- -- 88
2019-06-23 02:00:00 16.6 3 Norte 12 Norte 0 -- -- 85
2019-06-23 01:00:00 17.9 5 Norte 11 Nordeste 0 -- -- 81
2019-06-23 00:00:00 19.9 2 Este 12 Nordeste 0 -- -- 73
2019-06-22 23:00:00 21.3 5 Nordeste 10 Nordeste 0 -- -- 68
2019-06-22 22:00:00 22.1 3 Norte 10 Nordeste 0 -- -- 66
2019-06-22 21:00:00 25.2 3 Nordeste 10 Norte 0 -- -- 56
2019-06-22 20:00:00 26.3 4 Norte 11 Nordeste 0 -- -- 55
2019-06-22 19:00:00 29.8 4 Nordeste 13 Sudeste 0 -- -- 37
2019-06-22 18:00:00 29.8 5 Este 17 Sur 0 -- -- 37
2019-06-22 17:00:00 28.8 6 Norte 13 Noroeste 0 -- -- 36
2019-06-22 16:00:00 27.5 6 Noroeste 18 Este 0 -- -- 44
2019-06-22 15:00:00 27.4 9 Este 17 Sur 0 -- -- 40
2019-06-22 14:00:00 25.4 6 Sudeste 21 Sudeste 0 -- -- 45
2019-06-22 13:00:00 23 8 Este 15 Este 0 -- -- 44
2019-06-22 12:00:00 21.1 4 Sudeste 10 Sur 0 -- -- 58
2019-06-22 11:00:00 16.6 2 Oeste 5 Sudeste 0 -- -- 74
2019-06-22 10:00:00 13.1 0 Calma 6 Sur 0 -- -- 85
2019-06-22 09:00:00 10 2 Oeste 5 Sudoeste 0 -- -- 96
2019-06-22 08:00:00 8.2 0 Calma 5 Nordeste 0 -- -- 97
2019-06-22 07:00:00 7.6 0 Calma 3 Sudeste 0 -- -- 96
2019-06-22 06:00:00 7.8 0 Calma 6 Noroeste 0 -- -- 95
2019-06-22 05:00:00 8.7 2 Noroeste 9 Norte 0 -- -- 95
2019-06-22 04:00:00 9 3 Noroeste 10 Noroeste 0 -- -- 93
2019-06-22 03:00:00 9.8 3 Oeste 13 Oeste 0 -- -- 92
2019-06-22 02:00:00 11.3 5 Oeste 12 Oeste 0 -- -- 89
2019-06-22 01:00:00 12.5 4 Noroeste 12 Oeste 0 -- -- 84
2019-06-22 00:00:00 13.3 6 Noroeste 17 Noroeste 0 -- -- 81
2019-06-21 23:00:00 13.4 8 Oeste 30 Oeste 0 -- -- 81
2019-06-21 22:00:00 14 12 Oeste 28 Oeste 0 -- -- 78
2019-06-21 21:00:00 16.1 5 Noroeste 21 Norte 0 -- -- 69
2019-06-21 20:00:00 17.4 10 Norte 23 Noroeste 0 -- -- 62
2019-06-21 19:00:00 17.7 7 Noroeste 19 Oeste 0 -- -- 63
2019-06-21 18:00:00 18.8 6 Nordeste 25 Oeste 0 -- -- 61
2019-06-21 17:00:00 17.6 7 Noroeste 23 Oeste 0 -- -- 69
2019-06-21 16:00:00 17.9 5 Oeste 24 Oeste 0 -- -- 69
2019-06-21 15:00:00 17.1 6 Oeste 26 Sudoeste 0 -- -- 72
2019-06-21 14:00:00 15.9 10 Oeste 27 Oeste 0 -- -- 76
2019-06-21 13:00:00 16.5 12 Oeste 28 Oeste 0 -- -- 75
2019-06-21 12:00:00 15.9 10 Oeste 25 Oeste 0 -- -- 78
2019-06-21 11:00:00 14.7 9 Oeste 23 Oeste 0 -- -- 87
2019-06-21 10:00:00 14 10 Oeste 19 Oeste 0 -- -- 86
2019-06-21 09:00:00 13.3 9 Oeste 28 Noroeste 0 -- -- 88
2019-06-21 08:00:00 13.1 9 Oeste 18 Oeste 0 -- -- 90
2019-06-21 07:00:00 13.3 4 Oeste 16 Sudoeste 0.4 -- -- 90
2019-06-21 06:00:00 13.3 3 Noroeste 17 Noroeste 0 -- -- 90
2019-06-21 05:00:00 13.6 7 Oeste 21 Sudoeste 0 -- -- 91
2019-06-21 04:00:00 13.5 5 Oeste 14 Oeste 1.2 -- -- 94
2019-06-21 03:00:00 13.6 6 Noroeste 13 Noroeste 2.4 -- -- 95
2019-06-21 02:00:00 14 5 Noroeste 14 Oeste 1.6 -- -- 93
2019-06-21 01:00:00 14.5 6 Noroeste 19 Oeste 0.2 -- -- 90
2019-06-21 00:00:00 14.3 7 Oeste 19 Oeste 0.8 -- -- 91
2019-06-20 23:00:00 14.3 5 Oeste 14 Sudoeste 1 -- -- 91
2019-06-20 22:00:00 14.8 9 Oeste 16 Oeste 0.4 -- -- 89
2019-06-20 21:00:00 15.2 6 Noroeste 28 Noroeste 0.4 -- -- 86
2019-06-20 20:00:00 15.4 7 Noroeste 31 Oeste 0 -- -- 86
2019-06-20 19:00:00 16.1 12 Noroeste 37 Noroeste 0.2 -- -- 84
2019-06-20 18:00:00 16.1 16 Noroeste 31 Noroeste 0 -- -- 81
2019-06-20 17:00:00 17.4 8 Noroeste 24 Noroeste 0 -- -- 77
2019-06-20 16:00:00 16.6 12 Noroeste 26 Oeste 0 -- -- 81
2019-06-20 15:00:00 17.6 9 Noroeste 25 Oeste 0 -- -- 78
2019-06-20 14:00:00 18 10 Norte 21 Norte 0 -- -- 75
2019-06-20 13:00:00 17.3 9 Noroeste 21 Norte 0 -- -- 77
2019-06-20 12:00:00 17.2 8 Norte 18 Oeste 0 -- -- 77
2019-06-20 11:00:00 17.5 6 Oeste 16 Oeste 0 -- -- 78
2019-06-20 10:00:00 16.9 7 Oeste 18 Oeste 0 -- -- 79
2019-06-20 09:00:00 16 6 Oeste 16 Oeste 0 -- -- 83
2019-06-20 08:00:00 15.4 8 Oeste 19 Oeste 0 -- -- 86
2019-06-20 07:00:00 15.3 5 Noroeste 12 Sudoeste 0 -- -- 88
2019-06-20 06:00:00 15.1 5 Noroeste 18 Oeste 0 -- -- 89
2019-06-20 05:00:00 15.5 6 Oeste 18 Oeste 0 -- -- 86
2019-06-20 04:00:00 15.5 6 Oeste 19 Oeste 0 -- -- 86
2019-06-20 03:00:00 15.9 8 Noroeste 19 Noroeste 0 -- -- 82
2019-06-20 02:00:00 15.8 10 Oeste 21 Oeste 0 -- -- 81
2019-06-20 01:00:00 16.3 4 Noroeste 22 Norte 0 -- -- 79
2019-06-20 00:00:00 16 15 Norte 32 Noroeste 0 -- -- 79
2019-06-19 23:00:00 16.5 15 Norte 32 Norte 0 -- -- 79
2019-06-19 22:00:00 17 20 Norte 32 Noroeste 0 -- -- 78
2019-06-19 21:00:00 18.8 13 Norte 30 Noroeste 0 -- -- 75
2019-06-19 20:00:00 22.2 12 Norte 26 Noroeste 0 -- -- 67
2019-06-19 19:00:00 24.1 10 Norte 23 Nordeste 0 -- -- 62
2019-06-19 18:00:00 26 6 Norte 16 Nordeste 0 -- -- 50
2019-06-19 17:00:00 27.1 7 Oeste 17 Noroeste 0 -- -- 44
2019-06-19 16:00:00 26.6 8 Oeste 21 Oeste 0 -- -- 43
2019-06-19 15:00:00 25.4 9 Oeste -- -- -- -- -- 46
2019-06-19 14:00:00 24.9 6 Sudoeste 20 Oeste 0 -- -- 48
2019-06-19 13:00:00 24 3 Sur 12 Sudeste 0 -- -- 54
2019-06-19 12:00:00 23.3 6 Sur -- -- -- -- -- 56
2019-06-19 11:00:00 -- -- -- -- -- -- -- -- --
2019-06-19 10:00:00 -- -- -- -- -- -- -- -- --
2019-06-19 09:00:00 -- -- -- -- -- -- -- -- --
2019-06-19 08:00:00 -- -- -- -- -- -- -- -- --
2019-06-19 07:00:00 -- -- -- -- -- -- -- -- --
2019-06-19 06:00:00 -- -- -- -- -- -- -- -- --
2019-06-19 05:00:00 -- -- -- -- -- -- -- -- --
2019-06-19 04:00:00 -- -- -- -- -- -- -- -- --
2019-06-19 03:00:00 -- -- -- -- -- -- -- -- --
2019-06-19 02:00:00 -- -- -- -- -- -- -- -- --
2019-06-19 01:00:00 -- -- -- -- -- -- -- -- --
2019-06-19 00:00:00 -- -- -- -- -- -- -- -- --
2019-06-18 23:00:00 -- -- -- -- -- -- -- -- --
2019-06-18 22:00:00 -- -- -- -- -- -- -- -- --
2019-06-18 21:00:00 -- -- -- -- -- -- -- -- --
2019-06-18 20:00:00 -- -- -- -- -- -- -- -- --
2019-06-18 19:00:00 33.6 22 Sudeste 44 Sudeste 0 -- -- 17
2019-06-18 18:00:00 33.8 14 Sur 48 Sudeste 0 -- -- 19
2019-06-18 17:00:00 33.8 19 Sudeste 41 Sudeste 0 -- -- 20
2019-06-18 16:00:00 33.1 14 Sudeste 47 Sudeste 0 -- -- 26
2019-06-18 15:00:00 31.9 16 Sudeste 41 Sudeste 0 -- -- 26
2019-06-18 14:00:00 30.5 13 Sudeste 35 Sudeste 0 -- -- 30
2019-06-18 13:00:00 29.9 12 Sudeste 30 Este 0 -- -- 29
2019-06-18 12:00:00 27.9 15 Sudeste 24 Sudeste 0 -- -- 35
2019-06-18 11:00:00 26.1 10 Sudeste 35 Sudeste 0 -- -- 37
2019-06-18 10:00:00 25 10 Sudeste 23 Sudeste 0 -- -- 43
2019-06-18 09:00:00 21.4 8 Este 14 Nordeste 0 -- -- 54
2019-06-18 08:00:00 15.4 0 Calma 7 Norte 0 -- -- 80
2019-06-18 07:00:00 15.5 3 Norte 6 Nordeste 0 -- -- 76
2019-06-18 06:00:00 16.3 2 Norte 8 Norte 0 -- -- 77
2019-06-18 05:00:00 17.5 6 Norte 15 Nordeste 0 -- -- 80
2019-06-18 04:00:00 17.6 5 Norte 12 Norte 0 -- -- 82
2019-06-18 03:00:00 18.2 4 Norte 11 Nordeste 0 -- -- 84
2019-06-18 02:00:00 19.1 3 Nordeste 11 Nordeste 0 -- -- 81
2019-06-18 01:00:00 19.7 4 Nordeste 9 Nordeste 0 -- -- 81
2019-06-18 00:00:00 20.3 3 Norte 10 Nordeste 0 -- -- 78
2019-06-17 23:00:00 22.5 6 Oeste 15 Oeste 0 -- -- 64
2019-06-17 22:00:00 25.4 3 Nordeste 20 Norte 0 -- -- 55
2019-06-17 21:00:00 26.4 8 Norte 22 Norte 0 -- -- 51
2019-06-17 20:00:00 26.8 5 Norte 19 Nordeste 0 -- -- 43
2019-06-17 19:00:00 29.8 4 Noroeste 13 Sur 0 -- -- 40
2019-06-17 18:00:00 32.6 6 Sur 18 Sudeste 0 -- -- 25
2019-06-17 17:00:00 32 5 Nordeste 19 Este 0 -- -- 26
2019-06-17 16:00:00 31.2 6 Nordeste 25 Este 0 -- -- 30
2019-06-17 15:00:00 30.5 10 Sur 19 Sudeste 0 -- -- 33
2019-06-17 14:00:00 28.6 4 Este 21 Sudeste 0 -- -- 41
2019-06-17 13:00:00 27.2 10 Este 22 Este 0 -- -- 42
2019-06-17 12:00:00 25.7 10 Este 23 Nordeste 0 -- -- 46
2019-06-17 11:00:00 23.2 7 Este 18 Este 0 -- -- 55
2019-06-17 10:00:00 18.6 3 Norte 7 Oeste 0 -- -- 76
2019-06-17 09:00:00 14.1 2 Norte 7 Norte 0 -- -- 93
2019-06-17 08:00:00 11.5 2 Nordeste 5 Norte 0 -- -- 97
2019-06-17 07:00:00 11.5 2 Norte 4 Norte 0 -- -- 97
2019-06-17 06:00:00 10.7 0 Calma 2 Nordeste 0 -- -- 96
2019-06-17 05:00:00 11.3 0 Calma 2 Sur 0 -- -- 95
2019-06-17 04:00:00 12.2 0 Calma 3 Noroeste 0 -- -- 94
2019-06-17 03:00:00 13.1 0 Calma 4 Norte 0 -- -- 93
2019-06-17 02:00:00 14 2 Norte 6 Norte 0 -- -- 93
2019-06-17 01:00:00 15.1 2 Norte 5 Norte 0 -- -- 90
2019-06-17 00:00:00 16.6 2 Noroeste 10 Oeste 0 -- -- 82
2019-06-16 23:00:00 19 6 Oeste 17 Norte 0 -- -- 73
2019-06-16 22:00:00 21.2 9 Norte 27 Nordeste 0 -- -- 63
2019-06-16 21:00:00 22.4 12 Norte 30 Norte 0 -- -- 60
2019-06-16 20:00:00 23.9 14 Norte 30 Norte 0 -- -- 56
2019-06-16 19:00:00 26.4 11 Norte 23 Norte 0 -- -- 50
2019-06-16 18:00:00 29.1 5 Este 18 Sur 0 -- -- 29
2019-06-16 17:00:00 28 5 Noroeste 18 Sudeste 0 -- -- 33
2019-06-16 16:00:00 27.7 8 Este 28 Este 0 -- -- 37
2019-06-16 15:00:00 26.2 11 Nordeste 20 Este 0 -- -- 40
2019-06-16 14:00:00 24.9 10 Este 17 Este 0 -- -- 41
2019-06-16 13:00:00 23.2 8 Este 21 Este 0 -- -- 43
2019-06-16 12:00:00 21 8 Este 16 Este 0 -- -- 48
2019-06-16 11:00:00 18.8 8 Este 15 Este 0 -- -- 60
2019-06-16 10:00:00 14.9 3 Sudeste 5 Sur 0 -- -- 74
2019-06-16 09:00:00 10.1 0 Calma 4 Norte 0 -- -- 95
2019-06-16 08:00:00 7 0 Calma 3 Oeste 0 -- -- 97
2019-06-16 07:00:00 6.6 0 Calma 2 Oeste 0 -- -- 95
2019-06-16 06:00:00 7.3 0 Calma 6 Nordeste 0 -- -- 96
2019-06-16 05:00:00 7.7 3 Norte 6 Norte 0 -- -- 95
2019-06-16 04:00:00 8 3 Noroeste 9 Noroeste 0 -- -- 93
2019-06-16 03:00:00 9 4 Noroeste 12 Oeste 0 -- -- 91
2019-06-16 02:00:00 9.3 3 Oeste 10 Oeste 0 -- -- 90
2019-06-16 01:00:00 10.6 3 Oeste 10 Oeste 0 -- -- 85
2019-06-16 00:00:00 12 5 Oeste 14 Sudoeste 0 -- -- 80
2019-06-15 23:00:00 13.1 5 Oeste 19 Sudoeste 0 -- -- 75
2019-06-15 22:00:00 14.4 3 Oeste 19 Norte 0 -- -- 70
2019-06-15 21:00:00 17 8 Noroeste 31 Nordeste 0 -- -- 59
2019-06-15 20:00:00 18.5 13 Norte 32 Nordeste 0 -- -- 54
2019-06-15 19:00:00 19.5 12 Norte 28 Oeste 0 -- -- 51
2019-06-15 18:00:00 19.9 11 Norte 27 Norte 0 -- -- 44
2019-06-15 17:00:00 20.1 10 Norte 29 Nordeste 0 -- -- 50
2019-06-15 16:00:00 20.1 9 Norte 23 Norte 0 -- -- 53
2019-06-15 15:00:00 19.7 12 Noroeste 26 Noroeste 0 -- -- 60
2019-06-15 14:00:00 19.2 7 Norte 21 Norte 0 -- -- 61
2019-06-15 13:00:00 18.1 8 Nordeste 18 Nordeste 0 -- -- 56
2019-06-15 12:00:00 17.5 5 Norte 20 Noroeste 0 -- -- 62
2019-06-15 11:00:00 15.4 9 Noroeste 17 Noroeste 0.2 -- -- 66
2019-06-15 10:00:00 14.3 6 Oeste 14 Noroeste 0 -- -- 73
2019-06-15 09:00:00 12.6 6 Noroeste 14 Oeste 0 -- -- 82
2019-06-15 08:00:00 10.8 5 Noroeste 12 Oeste 0 -- -- 89
2019-06-15 07:00:00 11.4 3 Sudoeste 14 Oeste 0 -- -- 88
2019-06-15 06:00:00 11.5 5 Oeste 21 Oeste 0 -- -- 88
2019-06-15 05:00:00 11.6 3 Oeste 10 Oeste 0 -- -- 87
2019-06-15 04:00:00 11.7 3 Oeste 9 Oeste 0 -- -- 88
2019-06-15 03:00:00 12.2 3 Oeste 19 Oeste 0 -- -- 88
2019-06-15 02:00:00 12.3 5 Nordeste 17 Sudoeste 0 -- -- 89
2019-06-15 01:00:00 12.3 5 Sudoeste 15 Nordeste 0.6 -- -- 88
2019-06-15 00:00:00 12.6 6 Oeste 31 Noroeste 1.4 -- -- 88
2019-06-14 23:00:00 13.5 13 Noroeste 30 Noroeste 0 -- -- 84
2019-06-14 22:00:00 13.8 11 Noroeste 28 Noroeste 0 -- -- 83
2019-06-14 21:00:00 14 12 Norte 30 Noroeste 0 -- -- 83
2019-06-14 20:00:00 14.4 11 Norte 24 Noroeste 0 -- -- 83
2019-06-14 19:00:00 14.8 10 Norte 30 Noroeste 0 -- -- 82
2019-06-14 18:00:00 17.4 9 Noroeste 22 Norte 0 -- -- 74
2019-06-14 17:00:00 19.5 6 Noroeste 20 Noroeste 0 -- -- 71
2019-06-14 16:00:00 20 8 Noroeste 21 Norte 0 -- -- 70
2019-06-14 15:00:00 20.2 11 Norte 22 Norte 0 -- -- 68
2019-06-14 14:00:00 20.7 8 Norte 22 Nordeste 0 -- -- 66
2019-06-14 13:00:00 19.2 5 Oeste 15 Oeste 0 -- -- 68
2019-06-14 12:00:00 17 4 Noroeste 13 Sudoeste 0 -- -- 73
2019-06-14 11:00:00 16 3 Noroeste 11 Sudoeste 0 -- -- 75
2019-06-14 10:00:00 14.8 6 Oeste 16 Oeste 0 -- -- 78
2019-06-14 09:00:00 12.7 6 Oeste 12 Oeste 0 -- -- 87
2019-06-14 08:00:00 11.6 5 Oeste 11 Norte 0 -- -- 90
2019-06-14 07:00:00 11.8 7 Norte 21 Norte 0 -- -- 86
2019-06-14 06:00:00 11.3 3 Noroeste 9 Oeste 0 -- -- 90
2019-06-14 05:00:00 11.9 4 Oeste 9 Oeste 0 -- -- 88
2019-06-14 04:00:00 12 0 Calma 8 Noroeste 0 -- -- 89
2019-06-14 03:00:00 12 3 Oeste 10 Oeste 0 -- -- 88
2019-06-14 02:00:00 12.2 4 Oeste 17 Noroeste 0 -- -- 87
2019-06-14 01:00:00 12.3 4 Noroeste 19 Noroeste 0 -- -- 85
2019-06-14 00:00:00 12.6 6 Noroeste 20 Norte 0 -- -- 84
2019-06-13 23:00:00 12.9 6 Noroeste 23 Noroeste 0 -- -- 84
2019-06-13 22:00:00 13.5 10 Norte 24 Norte 0 -- -- 84
2019-06-13 21:00:00 14.1 5 Noroeste 26 Norte 0 -- -- 82
2019-06-13 20:00:00 15.1 8 Noroeste 26 Noroeste 0 -- -- 80
2019-06-13 19:00:00 17.8 14 Norte 40 Noroeste 0 -- -- 71
2019-06-13 18:00:00 24.5 15 Nordeste 33 Nordeste 0 -- -- 48
2019-06-13 17:00:00 25.1 8 Sudeste 36 Sudeste 0 -- -- 42
2019-06-13 16:00:00 25.5 10 Sudeste 35 Sudeste 0 -- -- 41
2019-06-13 15:00:00 25.2 9 Sudeste 31 Sudeste 0 -- -- 44
2019-06-13 14:00:00 23.8 14 Sudeste 39 Sur 0 -- -- 49
2019-06-13 13:00:00 22.2 13 Sudeste 33 Sur 0 -- -- 49
2019-06-13 12:00:00 20.2 16 Sudeste 41 Sudeste 0 -- -- 49
2019-06-13 11:00:00 18.2 17 Sudeste 37 Sudeste 0 -- -- 51
2019-06-13 10:00:00 16.2 13 Sudeste 28 Sudeste 0 -- -- 57
2019-06-13 09:00:00 10.7 4 Norte 9 Norte 0 -- -- 78
2019-06-13 08:00:00 7.5 4 Norte 12 Norte 0 -- -- 90
2019-06-13 07:00:00 5.2 0 Calma 5 Sudeste 0 -- -- 96
2019-06-13 06:00:00 4.7 0 Calma 2 Sudeste 0 -- -- 96
2019-06-13 05:00:00 5 0 Calma 2 Sur 0 -- -- 95
2019-06-13 04:00:00 5.8 0 Calma 2 Sudoeste 0 -- -- 94
2019-06-13 03:00:00 6.8 0 Calma 6 Oeste 0 -- -- 92
2019-06-13 02:00:00 7.9 3 Sudoeste 9 Sudoeste 0 -- -- 89
2019-06-13 01:00:00 9.3 0 Calma 12 Sudoeste 0 -- -- 84
2019-06-13 00:00:00 10.7 4 Oeste 18 Noroeste 0 -- -- 79
2019-06-12 23:00:00 11.3 9 Noroeste 22 Noroeste 0 -- -- 79
2019-06-12 22:00:00 11.5 6 Noroeste 26 Noroeste 0 -- -- 78
2019-06-12 21:00:00 12.8 11 Noroeste 24 Norte 0 -- -- 75
2019-06-12 20:00:00 14.4 11 Norte 28 Noroeste 0 -- -- 93
2019-06-12 19:00:00 16.4 12 Noroeste 27 Noroeste 0 -- -- 66
2019-06-12 18:00:00 17.4 11 Norte 28 Norte 0 -- -- 59
2019-06-12 17:00:00 18.6 4 Oeste 12 Noroeste 0 -- -- 50
2019-06-12 16:00:00 19.4 5 Sudoeste 13 Oeste 0 -- -- 46
2019-06-12 15:00:00 17 5 Oeste 9 Oeste 0 -- -- 54
2019-06-12 14:00:00 15 4 Noroeste 9 Noroeste 0 -- -- 58
2019-06-12 13:00:00 15.7 3 Sur 12 Oeste 0 -- -- 57
2019-06-12 12:00:00 14.4 5 Noroeste 13 Noroeste 0 -- -- 61
2019-06-12 11:00:00 11.7 0 Calma 5 Sur 0 -- -- 91
2019-06-12 10:00:00 7.4 2 Sur 5 Sur 0 -- -- 99
2019-06-12 09:00:00 6.2 0 Calma 5 Sur 0 -- -- 98
2019-06-12 08:00:00 5.5 0 Calma 6 Sudoeste 0 -- -- 98
2019-06-12 07:00:00 5.1 2 Noroeste 4 Noroeste 0 -- -- 97
2019-06-12 06:00:00 4.9 0 Calma 2 Sur 0 -- -- 97
2019-06-12 05:00:00 4 0 Calma 3 Sur 0 -- -- 96
2019-06-12 04:00:00 4.7 0 Calma 3 Norte 0 -- -- 96
2019-06-12 03:00:00 5.2 0 Calma 4 Noroeste 0 -- -- 94
2019-06-12 02:00:00 6.2 0 Calma 4 Noroeste 0 -- -- 93
2019-06-12 01:00:00 7.7 2 Norte 13 Norte 0 -- -- 88
2019-06-12 00:00:00 8.7 5 Norte 13 Noroeste 0 -- -- 86
2019-06-11 23:00:00 9.3 4 Noroeste 13 Noroeste 0 -- -- 89
2019-06-11 22:00:00 9.7 5 Norte 21 Norte 0 -- -- 87
2019-06-11 21:00:00 10.6 9 Noroeste 25 Noroeste 0 -- -- 80
2019-06-11 20:00:00 11 10 Noroeste 20 Noroeste 0 -- -- 83
2019-06-11 19:00:00 11.3 8 Noroeste 21 Oeste 0.2 -- -- 84
2019-06-11 18:00:00 11.2 8 Oeste 33 Noroeste 0.4 -- -- 85
2019-06-11 17:00:00 11 18 Noroeste 34 Norte 0.2 -- -- 77
2019-06-11 16:00:00 12.9 9 Oeste 39 Noroeste 0.6 -- -- 80
2019-06-11 15:00:00 13.1 9 Noroeste 21 Norte 0.2 -- -- 69
2019-06-11 14:00:00 12.3 8 Oeste 25 Noroeste 0.6 -- -- 76
2019-06-11 13:00:00 12.3 7 Noroeste 25 Oeste 0 -- -- 72
2019-06-11 12:00:00 11.4 12 Oeste 30 Oeste 0.2 -- -- 75
2019-06-11 11:00:00 12.5 10 Noroeste 20 Oeste 0 -- -- 69
2019-06-11 10:00:00 11.2 5 Noroeste 19 Sudoeste 0 -- -- 81
2019-06-11 09:00:00 9.9 6 Oeste 17 Oeste 0 -- -- 88
2019-06-11 08:00:00 9 5 Oeste 13 Oeste 0.2 -- -- 90
2019-06-11 07:00:00 9 0 Calma 4 Norte 0.4 -- -- 93
2019-06-11 06:00:00 9 0 Calma 8 Oeste 0 -- -- 92
2019-06-11 05:00:00 9.2 3 Oeste 8 Noroeste 0.2 -- -- 91
2019-06-11 04:00:00 9.7 2 Oeste 12 Oeste 0 -- -- 87
2019-06-11 03:00:00 9.8 4 Noroeste 12 Norte 0 -- -- 83
2019-06-11 02:00:00 10.3 5 Noroeste 12 Oeste 0 -- -- 76
2019-06-11 01:00:00 10.5 5 Noroeste 15 Noroeste 0 -- -- 77
2019-06-11 00:00:00 10.8 5 Noroeste 14 Noroeste 0 -- -- 77
2019-06-10 23:00:00 10.9 5 Noroeste 15 Oeste 0 -- -- 79
2019-06-10 22:00:00 11.1 5 Noroeste 21 Noroeste 0 -- -- 76
2019-06-10 21:00:00 11.8 6 Noroeste 23 Noroeste 0 -- -- 72
2019-06-10 20:00:00 12.7 5 Noroeste 14 Noroeste 0 -- -- 69
2019-06-10 19:00:00 13.4 6 Noroeste 22 Oeste 0 -- -- 68
2019-06-10 18:00:00 14 6 Noroeste 23 Noroeste 0 -- -- 66
2019-06-10 17:00:00 14.7 9 Noroeste 26 Noroeste 0 -- -- 63
2019-06-10 16:00:00 15.6 5 Norte 26 Norte 0 -- -- 61
2019-06-10 15:00:00 13.8 12 Oeste 22 Noroeste 0 -- -- 72
2019-06-10 14:00:00 12.8 13 Noroeste 26 Oeste 0 -- -- 74
2019-06-10 13:00:00 13.5 14 Noroeste 27 Oeste 0 -- -- 71
2019-06-10 12:00:00 13 13 Noroeste 30 Oeste 0 -- -- 74
2019-06-10 11:00:00 12.3 8 Oeste 27 Oeste 0 -- -- 77
2019-06-10 10:00:00 11.5 7 Noroeste 30 Oeste 0 -- -- 82
2019-06-10 09:00:00 10.5 8 Oeste 23 Oeste 0 -- -- 88
2019-06-10 08:00:00 10.4 8 Oeste 26 Oeste 0 -- -- 88
2019-06-10 07:00:00 10.3 7 Oeste 22 Oeste 0.2 -- -- 88
2019-06-10 06:00:00 10.3 7 Oeste 18 Oeste 0 -- -- 90
2019-06-10 05:00:00 10.9 7 Oeste 21 Oeste 0 -- -- 86
2019-06-10 04:00:00 11.1 7 Oeste 20 Oeste 0 -- -- 87
2019-06-10 03:00:00 11.4 7 Oeste 26 Oeste 0 -- -- 87
2019-06-10 02:00:00 11.9 7 Oeste 29 Oeste 0 -- -- 86
2019-06-10 01:00:00 12.2 8 Oeste 24 Oeste 0 -- -- 85
2019-06-10 00:00:00 12.7 7 Noroeste 29 Oeste 0 -- -- 84
2019-06-09 23:00:00 12.9 14 Noroeste 33 Oeste 0 -- -- 84
2019-06-09 22:00:00 13.1 12 Noroeste 33 Noroeste 0 -- -- 87
2019-06-09 21:00:00 13.7 7 Oeste 19 Oeste 0 -- -- 87
2019-06-09 20:00:00 14.6 5 Norte 26 Norte 0 -- -- 82
2019-06-09 19:00:00 15.4 12 Norte 30 Noroeste 0 -- -- 79
2019-06-09 18:00:00 15.4 15 Norte 42 Noroeste 0 -- -- 81
2019-06-09 17:00:00 17.1 21 Noroeste 48 Norte 0 -- -- 75
2019-06-09 16:00:00 19.7 21 Noroeste 34 Norte 0 -- -- 67
2019-06-09 15:00:00 21.3 12 Noroeste 26 Noroeste 0 -- -- 60
2019-06-09 14:00:00 22 8 Nordeste 19 Norte 0 -- -- 58
2019-06-09 13:00:00 20.2 6 Norte 11 Noroeste 0 -- -- 69
2019-06-09 12:00:00 18.8 2 Sur 13 Sur 0 -- -- 72
2019-06-09 11:00:00 16.3 5 Oeste 12 Sudoeste 0 -- -- 79
2019-06-09 10:00:00 14.4 5 Sudoeste 11 Noroeste 0 -- -- 85
2019-06-09 09:00:00 14 3 Nordeste 8 Sudoeste 0 -- -- 87
2019-06-09 08:00:00 12.2 2 Noroeste 8 Oeste 0 -- -- 94
2019-06-09 07:00:00 12.1 2 Este 7 Nordeste 0 -- -- 95
2019-06-09 06:00:00 12.3 0 Calma 5 Oeste 0 -- -- 95
2019-06-09 05:00:00 12.4 2 Sudoeste 6 Oeste 0 -- -- 95
2019-06-09 04:00:00 12.5 0 Calma 6 Noroeste 0 -- -- 95
2019-06-09 03:00:00 12.4 6 Oeste 10 Oeste 0 -- -- 94
2019-06-09 02:00:00 12.7 0 Calma 14 Oeste 0.2 -- -- 94
2019-06-09 01:00:00 13.2 2 Sudeste 11 Oeste 1.6 -- -- 92
2019-06-09 00:00:00 13.8 4 Oeste 15 Noroeste 0 -- -- 87
2019-06-08 23:00:00 14.9 5 Oeste 21 Sudoeste 0 -- -- 78
2019-06-08 22:00:00 15.7 9 Noroeste 22 Noroeste 0 -- -- 72
2019-06-08 21:00:00 17.1 8 Noroeste 30 Nordeste 0 -- -- 67
2019-06-08 20:00:00 17.8 12 Norte 32 Norte 0 -- -- 64
2019-06-08 19:00:00 18.3 14 Norte 35 Norte 0 -- -- 60
2019-06-08 18:00:00 19.2 18 Norte 33 Noroeste 0 -- -- 56
2019-06-08 17:00:00 22 13 Norte 31 Norte 0 -- -- 49
2019-06-08 16:00:00 24 8 Este 28 Nordeste 0 -- -- 34
2019-06-08 15:00:00 23.2 7 Sudeste 21 Nordeste 0 -- -- 39
2019-06-08 14:00:00 21.7 10 Sudeste 22 Sur 0 -- -- 42
2019-06-08 13:00:00 19.1 5 Norte 13 Nordeste 0 -- -- 51
2019-06-08 12:00:00 17.7 5 Nordeste 17 Norte 0 -- -- 50
2019-06-08 11:00:00 16.1 7 Nordeste 14 Este 0 -- -- 49
2019-06-08 10:00:00 12.7 4 Sudoeste 8 Sudoeste 0 -- -- 72
2019-06-08 09:00:00 8.4 2 Nordeste 7 Norte 0 -- -- 90
2019-06-08 08:00:00 5.4 0 Calma 4 Oeste 0 -- -- 97
2019-06-08 07:00:00 4.9 0 Calma 4 Noroeste 0 -- -- 95
2019-06-08 06:00:00 5.1 0 Calma 8 Noroeste 0 -- -- 93
2019-06-08 05:00:00 5.9 0 Calma 8 Noroeste 0 -- -- 92
2019-06-08 04:00:00 6.4 0 Calma 4 Sudoeste 0 -- -- 91
2019-06-08 03:00:00 7.1 0 Calma 8 Norte 0 -- -- 89
2019-06-08 02:00:00 8.2 4 Nordeste 9 Norte 0 -- -- 84
2019-06-08 01:00:00 9.2 2 Norte 15 Norte 0 -- -- 79
2019-06-08 00:00:00 10.8 4 Norte 17 Noroeste 0 -- -- 68
2019-06-07 23:00:00 11.5 8 Norte 22 Norte 0 -- -- 70
2019-06-07 22:00:00 12.3 6 Norte 29 Noroeste 0 -- -- 69
2019-06-07 21:00:00 12.6 14 Norte 26 Norte 0 -- -- 67
2019-06-07 20:00:00 14.5 10 Norte 32 Noroeste 0 -- -- 61
2019-06-07 19:00:00 15.6 10 Norte 28 Noroeste 0 -- -- 59
2019-06-07 18:00:00 15.6 17 Norte 32 Norte 0 -- -- 58
2019-06-07 17:00:00 18 11 Norte 28 Norte 0 -- -- 54
2019-06-07 16:00:00 19 10 Noroeste 24 Oeste 0 -- -- 42
2019-06-07 15:00:00 18.8 9 Oeste 21 Oeste 0 -- -- 40
2019-06-07 14:00:00 18.3 8 Sudoeste 27 Oeste 0 -- -- 44
2019-06-07 13:00:00 17.6 10 Oeste 29 Oeste 0 -- -- 48
2019-06-07 12:00:00 16.1 13 Oeste 25 Sudoeste 0 -- -- 54
2019-06-07 11:00:00 14.1 10 Oeste 24 Sudoeste 0 -- -- 59
2019-06-07 10:00:00 14.5 8 Sudoeste 17 Oeste 0 -- -- 59
2019-06-07 09:00:00 13.2 4 Sudoeste 29 Sur 0 -- -- 62
2019-06-07 08:00:00 11.6 7 Sur 30 Sur 0 -- -- 63
2019-06-07 07:00:00 11.1 11 Sur 39 Sudoeste 0 -- -- 64
2019-06-07 06:00:00 11.4 14 Sudoeste 42 Oeste 0.2 -- -- 63
2019-06-07 05:00:00 10.7 5 Sur 40 Sur 2 -- -- 84
2019-06-07 04:00:00 11.9 9 Oeste 43 Oeste 1 -- -- 78
2019-06-07 03:00:00 16.8 10 Sudoeste 31 Sudoeste 0 -- -- 65
2019-06-07 02:00:00 18.4 6 Oeste 49 Este 0 -- -- 58
2019-06-07 01:00:00 19.6 17 Este 40 Sudeste 0 -- -- 51
2019-06-07 00:00:00 19.5 7 Este 44 Nordeste 0 -- -- 50
2019-06-06 23:00:00 20 17 Este 53 Este 0 -- -- 49
2019-06-06 22:00:00 20.8 10 Sudeste 38 Sudeste 0 -- -- 48
2019-06-06 21:00:00 22.2 20 Sudeste 52 Sudeste 0 -- -- 46
2019-06-06 20:00:00 23.8 15 Sudeste 49 Sudeste 0 -- -- 39
2019-06-06 19:00:00 24.4 13 Sudeste 52 Este 0 -- -- 34
2019-06-06 18:00:00 24.3 18 Sudeste 58 Sudeste 0 -- -- 35
2019-06-06 17:00:00 23.7 25 Sudeste 54 Sudeste 0 -- -- 37
2019-06-06 16:00:00 23 21 Sudeste 51 Sudeste 0 -- -- 38
2019-06-06 15:00:00 21.7 18 Sudeste 44 Sudeste 0 -- -- 40
2019-06-06 14:00:00 20.7 10 Sudeste 30 Sudeste 0 -- -- 47
2019-06-06 13:00:00 18.7 13 Sudeste 29 Sudeste 0 -- -- 53
2019-06-06 12:00:00 17.2 10 Sudeste 24 Sudeste 0 -- -- 60
2019-06-06 11:00:00 14.6 9 Este 20 Este 0 -- -- 63
2019-06-06 10:00:00 12.7 8 Este 15 Este 0 -- -- 73
2019-06-06 09:00:00 10.4 6 Este 10 Este 0 -- -- 87
2019-06-06 08:00:00 8.5 2 Norte 5 Norte 0 -- -- 95
2019-06-06 07:00:00 8.2 0 Calma 3 Noroeste 0 -- -- 95
2019-06-06 06:00:00 8.1 0 Calma 3 Norte 0 -- -- 95
2019-06-06 05:00:00 8.4 0 Calma 3 Noroeste 0 -- -- 94
2019-06-06 04:00:00 8.6 0 Calma 5 Nordeste 0 -- -- 93
2019-06-06 03:00:00 8.7 0 Calma 5 Noroeste 0 -- -- 93
2019-06-06 02:00:00 9 0 Calma 6 Nordeste 0 -- -- 91
2019-06-06 01:00:00 9.9 3 Oeste 10 Oeste 0 -- -- 87
2019-06-06 00:00:00 9.9 3 Norte 6 Oeste 0 -- -- 87
2019-06-05 23:00:00 10.8 2 Oeste 12 Norte 0 -- -- 82
2019-06-05 22:00:00 11.1 2 Norte 9 Noroeste 0 -- -- 80
2019-06-05 21:00:00 12 3 Oeste 28 Noroeste 0 -- -- 73
2019-06-05 20:00:00 12.6 13 Norte 28 Noroeste 0 -- -- 73
2019-06-05 19:00:00 13.5 7 Norte 27 Norte 0 -- -- 73
2019-06-05 18:00:00 13.1 18 Noroeste 33 Noroeste 0 -- -- 73
2019-06-05 17:00:00 13.4 13 Oeste 32 Oeste 0 -- -- 79
2019-06-05 16:00:00 13 12 Noroeste 29 Noroeste 0 -- -- 77
2019-06-05 15:00:00 12.5 9 Noroeste 26 Oeste 0 -- -- 82
2019-06-05 14:00:00 12.3 9 Oeste 15 Oeste 0.4 -- -- 86
2019-06-05 13:00:00 11.8 5 Oeste 18 Oeste 0 -- -- 82
2019-06-05 12:00:00 11.4 9 Oeste 19 Oeste 0.2 -- -- 83
2019-06-05 11:00:00 10 5 Oeste 21 Sudoeste 0.4 -- -- 89
2019-06-05 10:00:00 9.9 9 Noroeste 22 Oeste 5.4 -- -- 94
2019-06-05 09:00:00 10.4 8 Noroeste 30 Oeste 2 -- -- 93
2019-06-05 08:00:00 10.6 9 Noroeste 23 Oeste 3 -- -- 94
2019-06-05 07:00:00 10.7 4 Noroeste 15 Sudoeste 5 -- -- 94
2019-06-05 06:00:00 10.7 3 Oeste 12 Oeste 5 -- -- 94
2019-06-05 05:00:00 10.9 3 Noroeste 10 Noroeste 4.4 -- -- 92
2019-06-05 04:00:00 11.6 5 Noroeste 18 Oeste 1.4 -- -- 87
2019-06-05 03:00:00 12.7 5 Noroeste 16 Norte 0 -- -- 77
2019-06-05 02:00:00 12.6 8 Oeste 17 Sudoeste 0 -- -- 79
2019-06-05 01:00:00 12.6 7 Oeste 23 Oeste 0 -- -- 78
2019-06-05 00:00:00 12.6 6 Oeste 25 Oeste 0 -- -- 81
2019-06-04 23:00:00 13.1 7 Norte 36 Norte 0 -- -- 73
2019-06-04 22:00:00 12.8 17 Noroeste 46 Noroeste 0 -- -- 78
2019-06-04 21:00:00 13.4 19 Norte 44 Noroeste 0 -- -- 81
2019-06-04 20:00:00 15.2 14 Norte 35 Norte 0 -- -- 83
2019-06-04 19:00:00 15.8 16 Norte 40 Norte 1.6 -- -- 81
2019-06-04 18:00:00 16.4 19 Norte 50 Norte 0 -- -- 82
2019-06-04 17:00:00 19.8 20 Norte 39 Este 0 -- -- 72
2019-06-04 16:00:00 25.8 11 Noroeste 24 Norte 0 -- -- 54
2019-06-04 15:00:00 29.8 7 Sudeste 21 Sur 0 -- -- 33
2019-06-04 14:00:00 28.5 11 Sur 32 Sudeste 0 -- -- 34
2019-06-04 13:00:00 27.5 17 Sudeste 33 Sudeste 0 -- -- 35
2019-06-04 12:00:00 26 18 Sudeste 35 Sudeste 0 -- -- 37
2019-06-04 11:00:00 23.9 13 Sudeste 28 Sudeste 0 -- -- 40
2019-06-04 10:00:00 22 12 Sudeste 26 Sudeste 0 -- -- 43
2019-06-04 09:00:00 20.5 14 Sur 30 Sur 0 -- -- 46
2019-06-04 08:00:00 15.9 4 Norte 12 Noroeste 0 -- -- 72
2019-06-04 07:00:00 14.7 4 Norte 12 Nordeste 0 -- -- 74
2019-06-04 06:00:00 14.4 4 Norte 10 Norte 0 -- -- 82
2019-06-04 05:00:00 15.1 4 Norte 8 Norte 0 -- -- 86
2019-06-04 04:00:00 16 4 Norte 13 Nordeste 0 -- -- 88
2019-06-04 03:00:00 16.8 8 Este 17 Este 0 -- -- 88
2019-06-04 02:00:00 16.3 0 Calma 5 Oeste 0 -- -- 92
2019-06-04 01:00:00 16.3 2 Noroeste 8 Norte 0 -- -- 89
2019-06-04 00:00:00 17.6 3 Norte 12 Noroeste 0 -- -- 86
2019-06-03 23:00:00 18.7 7 Norte 15 Norte 0 -- -- 82
2019-06-03 22:00:00 20.5 4 Norte 19 Norte 0 -- -- 78
2019-06-03 21:00:00 22.9 8 Noroeste 23 Norte 0 -- -- 72
2019-06-03 20:00:00 25.2 14 Norte 25 Norte 0 -- -- 62
2019-06-03 19:00:00 26.7 11 Norte 21 Norte 0 -- -- 56
2019-06-03 18:00:00 30.5 7 Este 13 Este 0 -- -- 34
2019-06-03 17:00:00 29.7 8 Este 18 Sudeste 0 -- -- 34
2019-06-03 16:00:00 28.9 9 Este 19 Este 0 -- -- 38
2019-06-03 15:00:00 27.6 8 Este 20 Este 0 -- -- 42
2019-06-03 14:00:00 26.2 11 Este 22 Este 0 -- -- 42
2019-06-03 13:00:00 25.2 10 Este 18 Este 0 -- -- 43
2019-06-03 12:00:00 22.2 2 Sudeste 10 Sur 0 -- -- 55
2019-06-03 11:00:00 18.5 2 Oeste 12 Oeste 0 -- -- 66
2019-06-03 10:00:00 17 3 Noroeste 10 Noroeste 0 -- -- 71
2019-06-03 09:00:00 14.4 2 Sur 5 Sur 0 -- -- 80
2019-06-03 08:00:00 12.8 2 Sudoeste 5 Sudoeste 0 -- -- 84
2019-06-03 07:00:00 12.4 2 Sur 5 Norte 0 -- -- 84
2019-06-03 06:00:00 12.7 3 Noroeste 9 Norte 0 -- -- 82
2019-06-03 05:00:00 13 2 Norte 4 Norte 0 -- -- 84
2019-06-03 04:00:00 13.2 2 Norte 5 Noroeste 0 -- -- 81
2019-06-03 03:00:00 14.2 2 Noroeste 7 Sudoeste 0 -- -- 75
2019-06-03 02:00:00 14.8 3 Noroeste 10 Oeste 0 -- -- 71
2019-06-03 01:00:00 15.3 0 Calma 10 Oeste 0 -- -- 70
2019-06-03 00:00:00 17.5 3 Oeste 13 Noroeste 0 -- -- 61
2019-06-02 23:00:00 19.1 3 Noroeste 22 Noroeste 0 -- -- 57
2019-06-02 22:00:00 20.5 9 Noroeste 18 Noroeste 0 -- -- 50
2019-06-02 21:00:00 21.7 9 Noroeste 18 Norte 0 -- -- 56
2019-06-02 20:00:00 24.2 7 Norte 24 Norte 0 -- -- 56
2019-06-02 19:00:00 28.8 8 Norte 18 Norte 0 -- -- 48
2019-06-02 18:00:00 31.6 6 Este 13 Este 0 -- -- 33
2019-06-02 17:00:00 31.7 5 Sur 17 Sudeste 0 -- -- 35
2019-06-02 16:00:00 31.6 8 Sudeste 15 Sur 0 -- -- 34
2019-06-02 15:00:00 30.2 5 Nordeste 21 Sudeste 0 -- -- 37
2019-06-02 14:00:00 29.2 9 Este 28 Este 0 -- -- 37
2019-06-02 13:00:00 28.1 9 Sudeste 22 Sudeste 0 -- -- 38
2019-06-02 12:00:00 26.7 11 Sudeste 24 Este 0 -- -- 44
2019-06-02 11:00:00 24.5 5 Este 17 Este 0 -- -- 47
2019-06-02 10:00:00 21.5 11 Este 18 Este 0 -- -- 55
2019-06-02 09:00:00 15.5 5 Norte 13 Norte 0 -- -- 78
2019-06-02 08:00:00 12.5 8 Norte 14 Norte 0 -- -- 84
2019-06-02 07:00:00 12.5 5 Norte 13 Norte 0 -- -- 84
2019-06-02 06:00:00 12.8 7 Norte 14 Norte 0 -- -- 83
2019-06-02 05:00:00 13.2 5 Norte 15 Nordeste 0 -- -- 82
2019-06-02 04:00:00 14.1 7 Norte 17 Norte 0 -- -- 79
2019-06-02 03:00:00 12.6 3 Sudeste 8 Norte 0 -- -- 87
2019-06-02 02:00:00 12.5 0 Calma 4 Nordeste 0 -- -- 90
2019-06-02 01:00:00 13.7 0 Calma 4 Sur 0 -- -- 86
2019-06-02 00:00:00 14.7 0 Calma 3 Sur 0 -- -- 84
2019-06-01 23:00:00 16.4 0 Calma 8 Norte 0 -- -- 77
2019-06-01 22:00:00 19.5 2 Este 7 Norte 0 -- -- 66
2019-06-01 21:00:00 23 5 Norte 10 Norte 0 -- -- 56
2019-06-01 20:00:00 29.5 3 Noroeste 13 Nordeste 0 -- -- 46
2019-06-01 19:00:00 31.1 8 Este 16 Este 0 -- -- 32
2019-06-01 18:00:00 31.3 7 Este 18 Este 0 -- -- 32
2019-06-01 17:00:00 31.2 5 Sudeste 17 Sudeste 0 -- -- 36
2019-06-01 16:00:00 30.3 4 Sur 22 Sudeste 0 -- -- 34
2019-06-01 15:00:00 29.3 7 Sudeste 24 Sudeste 0 -- -- 39
2019-06-01 14:00:00 28.1 8 Sudeste 21 Sudeste 0 -- -- 43
2019-06-01 13:00:00 26.9 9 Sudeste 23 Sudeste 0 -- -- 42
2019-06-01 12:00:00 25.3 10 Sudeste 20 Sudeste 0 -- -- 47
2019-06-01 11:00:00 22.4 9 Este 19 Este 0 -- -- 58
2019-06-01 10:00:00 19.9 12 Este 20 Este 0 -- -- 66
2019-06-01 09:00:00 14.3 5 Norte 12 Nordeste 0 -- -- 84
2019-06-01 08:00:00 11.5 5 Norte 14 Nordeste 0 -- -- 91
2019-06-01 07:00:00 11.4 6 Norte 14 Norte 0 -- -- 92
2019-06-01 06:00:00 11.3 4 Norte 9 Nordeste 0 -- -- 94
2019-06-01 05:00:00 10.8 0 Calma 9 Nordeste 0 -- -- 93
2019-06-01 04:00:00 11.7 2 Norte 7 Este 0 -- -- 93
2019-06-01 03:00:00 12.2 2 Este 5 Nordeste 0 -- -- 93
2019-06-01 02:00:00 13.1 2 Este 6 Nordeste 0 -- -- 92
2019-06-01 01:00:00 14.6 0 Calma 9 Norte 0 -- -- 88
2019-06-01 00:00:00 15.9 0 Calma 3 Norte 0 -- -- 84
2019-05-31 23:00:00 18.5 0 Calma 9 Norte 0 -- -- 76
2019-05-31 22:00:00 22.5 4 Norte 19 Norte 0 -- -- 60
2019-05-31 21:00:00 24.1 11 Norte 21 Norte 0 -- -- 55
2019-05-31 20:00:00 26 9 Norte 21 Norte 0 -- -- 52
2019-05-31 19:00:00 27.5 7 Norte 19 Noroeste 0 -- -- 49
2019-05-31 18:00:00 28.5 6 Norte 16 Nordeste 0 -- -- 45
2019-05-31 17:00:00 29.4 4 Sudeste 13 Sudeste 0 -- -- 38
2019-05-31 16:00:00 27.6 4 Noroeste 11 Sur 0 -- -- 41
2019-05-31 15:00:00 27.9 5 Este 27 Sudeste 0 -- -- 45
2019-05-31 14:00:00 26.4 3 Sudoeste 17 Sudeste 0 -- -- 46
2019-05-31 13:00:00 25 9 Este 16 Este 0 -- -- 51
2019-05-31 12:00:00 23.3 7 Este 15 Nordeste 0 -- -- 54
2019-05-31 11:00:00 20.5 2 Sur 6 Este 0 -- -- 68
2019-05-31 10:00:00 15.7 0 Calma 5 Sudeste 0 -- -- 83
2019-05-31 09:00:00 12.2 0 Calma 3 Noroeste 0 -- -- 96
2019-05-31 08:00:00 8.9 0 Calma 5 Norte 0 -- -- 97
2019-05-31 07:00:00 8.9 0 Calma 3 Noroeste 0 -- -- 96
2019-05-31 06:00:00 9.7 0 Calma 4 Noroeste 0 -- -- 96
2019-05-31 05:00:00 10.2 3 Noroeste 6 Norte 0 -- -- 96
2019-05-31 04:00:00 10.8 2 Norte 9 Norte 0 -- -- 94
2019-05-31 03:00:00 12.5 4 Noroeste 17 Noroeste 0 -- -- 93
2019-05-31 02:00:00 13.2 8 Oeste 16 Oeste 0 -- -- 91
2019-05-31 01:00:00 13.3 6 Oeste 13 Oeste 0 -- -- 92
2019-05-31 00:00:00 14.3 2 Norte 5 Oeste 0 -- -- 85
2019-05-30 23:00:00 17.4 3 Sudoeste 26 Oeste 0 -- -- 75
2019-05-30 22:00:00 18.2 6 Noroeste 21 Noroeste 0 -- -- 71
2019-05-30 21:00:00 20.1 8 Noroeste 28 Noroeste 0 -- -- 65
2019-05-30 20:00:00 22.4 8 Norte 27 Nordeste 0 -- -- 58
2019-05-30 19:00:00 24.2 6 Norte 22 Oeste 0 -- -- 50
2019-05-30 18:00:00 25 8 Nordeste 25 Norte 0 -- -- 44
2019-05-30 17:00:00 24.6 10 Noroeste 25 Norte 0 -- -- 44
2019-05-30 16:00:00 24.9 8 Noroeste 23 Norte 0 -- -- 45
2019-05-30 15:00:00 23.5 9 Noroeste 24 Oeste 0 -- -- 44
2019-05-30 14:00:00 22.6 10 Noroeste 23 Oeste 0 -- -- 50
2019-05-30 13:00:00 21.4 9 Norte 22 Este 0 -- -- 53
2019-05-30 12:00:00 20.3 6 Oeste 14 Sudoeste 0 -- -- 57
2019-05-30 11:00:00 17.4 7 Oeste 14 Oeste 0 -- -- 60
2019-05-30 10:00:00 13.8 6 Oeste 14 Sudoeste 0 -- -- 72
2019-05-30 09:00:00 9.3 3 Norte 14 Oeste 0 -- -- 85
2019-05-30 08:00:00 5.8 3 Norte 9 Norte 0 -- -- 94
2019-05-30 07:00:00 5.3 2 Noroeste 6 Noroeste 0 -- -- 94
2019-05-30 06:00:00 5.7 2 Noroeste 9 Norte 0 -- -- 94
2019-05-30 05:00:00 5.9 3 Norte 8 Norte 0 -- -- 95
2019-05-30 04:00:00 6.2 3 Noroeste 6 Noroeste 0 -- -- 94
2019-05-30 03:00:00 6.8 2 Noroeste 4 Nordeste 0 -- -- 92
2019-05-30 02:00:00 8 0 Calma 6 Norte 0 -- -- 89
2019-05-30 01:00:00 9.1 2 Norte 7 Oeste 0 -- -- 87
2019-05-30 00:00:00 9.8 4 Noroeste 10 Oeste 0 -- -- 84
2019-05-29 23:00:00 9.7 4 Oeste 16 Oeste 0 -- -- 88
2019-05-29 22:00:00 11.3 6 Oeste 14 Nordeste 0 -- -- 81
2019-05-29 21:00:00 13.9 5 Norte 22 Noroeste 0 -- -- 67
2019-05-29 20:00:00 15.1 10 Noroeste 30 Oeste 0 -- -- 59
2019-05-29 19:00:00 16.8 7 Norte 39 Oeste 0 -- -- 58
2019-05-29 18:00:00 16.5 13 Noroeste 26 Oeste 0 -- -- 60
2019-05-29 17:00:00 16.6 11 Noroeste 27 Norte 0 -- -- 62
2019-05-29 16:00:00 16.6 11 Oeste 30 Oeste 0 -- -- 63
2019-05-29 15:00:00 16.5 12 Noroeste 30 Oeste 0 -- -- 60
2019-05-29 14:00:00 16.3 8 Norte 27 Noroeste 0 -- -- 55
2019-05-29 13:00:00 15.1 13 Noroeste 27 Nordeste 0 -- -- 65
2019-05-29 12:00:00 14.4 9 Noroeste 23 Noroeste 0 -- -- 70
2019-05-29 11:00:00 12.9 12 Oeste 32 Sudoeste 0 -- -- 75
2019-05-29 10:00:00 12.7 9 Oeste 19 Oeste 0 -- -- 80
2019-05-29 09:00:00 11.3 5 Oeste 19 Oeste 0.4 -- -- 85
2019-05-29 08:00:00 10.7 5 Noroeste 13 Oeste 0 -- -- 90
2019-05-29 07:00:00 10 7 Oeste 18 Oeste 0.6 -- -- 93
2019-05-29 06:00:00 10.6 7 Oeste 19 Oeste 0 -- -- 87
2019-05-29 05:00:00 10.4 5 Noroeste 16 Oeste 0.2 -- -- 87
2019-05-29 04:00:00 10.4 5 Oeste 16 Oeste 0.2 -- -- 87
2019-05-29 03:00:00 10.5 6 Oeste 19 Oeste 0 -- -- 83
2019-05-29 02:00:00 10.5 7 Noroeste 24 Oeste 0 -- -- 85
2019-05-29 01:00:00 10.7 12 Oeste 31 Oeste 0 -- -- 83
2019-05-29 00:00:00 10.4 6 Noroeste 19 Noroeste 0.2 -- -- 86
2019-05-28 23:00:00 10.5 5 Noroeste 23 Oeste 0 -- -- 85
2019-05-28 22:00:00 10.6 9 Noroeste 22 Sudoeste 0 -- -- 84
2019-05-28 21:00:00 10.9 6 Noroeste 19 Noroeste 0.4 -- -- 84
2019-05-28 20:00:00 11.7 5 Noroeste 25 Noroeste 0 -- -- 81
2019-05-28 19:00:00 12.5 10 Norte 35 Noroeste 0 -- -- 72
2019-05-28 18:00:00 12.9 12 Noroeste 28 Oeste 0 -- -- 70
2019-05-28 17:00:00 13.3 9 Noroeste 27 Sudoeste 0.2 -- -- 76
2019-05-28 16:00:00 13.4 9 Noroeste 22 Noroeste 0 -- -- 77
2019-05-28 15:00:00 13.4 11 Oeste 35 Oeste 0 -- -- 79
2019-05-28 14:00:00 13.7 15 Noroeste 35 Oeste 0 -- -- 71
2019-05-28 13:00:00 14.4 9 Oeste 31 Oeste 0 -- -- 71
2019-05-28 12:00:00 12.9 8 Oeste 24 Oeste 0 -- -- 73
2019-05-28 11:00:00 11.4 6 Oeste 18 Oeste 0 -- -- 81
2019-05-28 10:00:00 11 9 Noroeste 23 Noroeste 0 -- -- 83
2019-05-28 09:00:00 10.7 7 Noroeste 23 Oeste 0 -- -- 81
2019-05-28 08:00:00 10.4 7 Noroeste 20 Noroeste 0 -- -- 81
2019-05-28 07:00:00 10.1 8 Oeste 22 Oeste 0 -- -- 83
2019-05-28 06:00:00 10.3 9 Oeste 24 Noroeste 0 -- -- 80
2019-05-28 05:00:00 10.1 7 Noroeste 27 Oeste 0 -- -- 82
2019-05-28 04:00:00 10.5 10 Noroeste 28 Oeste 0 -- -- 82
2019-05-28 03:00:00 10.4 8 Noroeste 26 Oeste 0 -- -- 83
2019-05-28 02:00:00 10.8 10 Noroeste 27 Oeste 0 -- -- 81
2019-05-28 01:00:00 11 10 Oeste 21 Oeste 0 -- -- 82
2019-05-28 00:00:00 11.8 8 Oeste 19 Sudoeste 0 -- -- 82